Time;durP1;ratioP1;P1;durP2;ratioP2;P2;SDS_P1;SDS_P2;PMS_P1;PMS_P2;Temp;Humidity;BMP_temperature;BMP_pressure;BME280_temperature;BME280_humidity;BME280_pressure;Samples;Min_cycle;Max_cycle;Signal;HPM_P1;HPM_P2
2022/05/03 00:08:38;;;;;;;4.40;1.73;;;9.50;99.90;;;;;;20655445;28;20486;-82
2022/05/03 00:18:41;;;;;;;3.47;1.57;;;9.40;99.90;;;;;;20676187;28;20542;-83
2022/05/03 00:28:43;;;;;;;3.70;1.92;;;9.50;99.90;;;;;;20642239;28;20061;-83
2022/05/03 00:38:44;;;;;;;3.17;1.40;;;9.30;99.90;;;;;;20656478;28;20470;-83
2022/05/03 00:48:58;;;;;;;4.30;1.85;;;9.10;99.90;;;;;;20638675;28;20333;-83
2022/05/03 00:59:27;;;;;;;4.75;2.28;;;9.00;99.90;;;;;;20640741;28;20069;-82
2022/05/03 01:09:39;;;;;;;5.15;2.60;;;8.90;99.90;;;;;;20671922;28;20478;-82
2022/05/03 01:20:03;;;;;;;6.63;2.17;;;8.80;99.90;;;;;;20637962;28;20046;-83
2022/05/03 01:30:08;;;;;;;6.07;2.92;;;8.60;99.90;;;;;;20636871;28;20082;-83
2022/05/03 01:40:25;;;;;;;6.93;2.70;;;8.80;99.90;;;;;;20662231;28;20247;-82
2022/05/03 01:50:32;;;;;;;5.63;2.80;;;8.60;99.90;;;;;;20652269;28;20110;-83
2022/05/03 02:00:35;;;;;;;8.90;3.53;;;8.50;99.90;;;;;;20670100;28;20039;-83
2022/05/03 02:11:07;;;;;;;6.25;2.65;;;8.30;99.90;;;;;;20652243;28;20086;-83
2022/05/03 02:21:21;;;;;;;7.22;2.85;;;8.20;99.90;;;;;;20668451;28;20054;-82
2022/05/03 02:31:37;;;;;;;6.65;2.78;;;8.20;99.90;;;;;;20669879;28;20474;-82
2022/05/03 02:41:39;;;;;;;8.98;4.05;;;8.40;99.90;;;;;;20667338;28;20064;-82
2022/05/03 02:52:17;;;;;;;8.60;3.90;;;8.20;99.90;;;;;;20665009;28;20065;-83
2022/05/03 03:02:34;;;;;;;6.18;2.92;;;8.30;99.90;;;;;;20652807;28;20036;-82
2022/05/03 03:12:38;;;;;;;5.55;3.13;;;8.30;99.90;;;;;;20667184;28;20073;-83
2022/05/03 03:22:43;;;;;;;10.73;3.90;;;8.20;99.90;;;;;;20665827;28;20064;-82
2022/05/03 03:32:51;;;;;;;8.75;3.90;;;8.20;99.90;;;;;;20707785;28;20034;-82
2022/05/03 03:42:53;;;;;;;7.05;3.50;;;8.10;99.90;;;;;;20689945;28;20395;-83
2022/05/03 03:52:55;;;;;;;9.43;3.80;;;8.00;99.90;;;;;;20690869;28;20050;-82
2022/05/03 04:02:58;;;;;;;8.32;3.63;;;7.90;99.90;;;;;;20695886;28;20490;-82
2022/05/03 04:13:00;;;;;;;7.97;3.15;;;7.80;99.90;;;;;;20681427;28;20152;-82
2022/05/03 04:23:01;;;;;;;10.00;4.47;;;7.80;99.90;;;;;;20636274;28;20034;-82
2022/05/03 04:33:02;;;;;;;9.57;3.75;;;7.80;99.90;;;;;;20626151;28;20052;-82
2022/05/03 04:43:03;;;;;;;8.90;3.63;;;7.80;99.90;;;;;;20626023;28;20048;-82
2022/05/03 04:53:05;;;;;;;9.55;4.70;;;7.70;99.90;;;;;;20624130;28;20124;-82
2022/05/03 05:03:06;;;;;;;8.70;3.78;;;7.80;99.90;;;;;;20623559;28;20034;-82
2022/05/03 05:13:08;;;;;;;9.55;4.38;;;7.90;99.90;;;;;;20639582;28;20050;-82
2022/05/03 05:23:09;;;;;;;9.38;4.43;;;8.00;99.90;;;;;;20622791;28;20034;-82
2022/05/03 05:33:12;;;;;;;11.85;5.10;;;8.40;99.90;;;;;;20631084;28;20061;-82
2022/05/03 05:43:14;;;;;;;11.30;4.72;;;8.90;99.90;;;;;;20632814;28;20044;-84
2022/05/03 05:53:33;;;;;;;14.07;4.93;;;9.50;99.90;;;;;;20629911;28;20413;-85
2022/05/03 06:03:34;;;;;;;16.80;6.47;;;10.00;99.90;;;;;;20626674;28;20049;-84
2022/05/03 06:13:36;;;;;;;12.25;5.10;;;10.20;99.90;;;;;;20606460;28;20053;-84
2022/05/03 06:23:37;;;;;;;11.43;4.25;;;10.30;99.90;;;;;;20628570;28;20026;-84
2022/05/03 06:33:38;;;;;;;14.43;6.07;;;10.30;99.90;;;;;;20626743;28;20022;-82
2022/05/03 06:43:39;;;;;;;14.02;6.03;;;10.50;99.90;;;;;;20640969;28;20044;-82
2022/05/03 06:53:41;;;;;;;14.88;5.43;;;10.80;99.90;;;;;;20621162;28;20053;-82
2022/05/03 07:03:43;;;;;;;14.20;5.93;;;10.90;99.90;;;;;;20637463;28;20042;-82
2022/05/03 07:13:44;;;;;;;13.68;5.45;;;11.00;99.90;;;;;;20625712;28;20030;-82
2022/05/03 07:23:45;;;;;;;13.35;5.22;;;11.30;99.90;;;;;;20664936;28;20041;-82
2022/05/03 07:33:47;;;;;;;10.00;5.05;;;11.50;99.90;;;;;;20607236;28;20060;-82
2022/05/03 07:43:48;;;;;;;15.10;6.25;;;11.90;99.90;;;;;;20620830;28;20486;-81
2022/05/03 07:53:49;;;;;;;10.85;5.47;;;12.10;99.90;;;;;;20622187;28;20042;-82
2022/05/03 08:03:52;;;;;;;11.60;4.88;;;12.20;99.90;;;;;;20641034;28;20034;-82
2022/05/03 08:13:56;;;;;;;11.38;4.38;;;12.10;99.90;;;;;;20655974;28;20034;-83
2022/05/03 08:23:57;;;;;;;12.38;6.22;;;12.70;99.90;;;;;;20657889;28;20034;-82
2022/05/03 08:34:02;;;;;;;11.40;4.75;;;13.20;99.90;;;;;;20659494;28;20073;-82
2022/05/03 08:44:03;;;;;;;9.15;5.60;;;13.40;99.90;;;;;;20659208;28;20078;-83
2022/05/03 08:54:05;;;;;;;13.00;5.95;;;13.00;99.90;;;;;;20658957;28;20077;-83
2022/05/03 09:04:07;;;;;;;13.73;6.00;;;13.10;99.90;;;;;;20661110;28;20064;-82
2022/05/03 09:14:10;;;;;;;12.05;5.72;;;13.30;99.90;;;;;;20644384;28;20042;-83
2022/05/03 09:24:12;;;;;;;13.80;5.75;;;13.60;99.90;;;;;;20671840;28;20053;-82
2022/05/03 09:34:18;;;;;;;15.43;5.85;;;13.80;99.90;;;;;;20635121;28;20143;-82
2022/05/03 09:44:19;;;;;;;18.30;6.10;;;13.90;99.90;;;;;;20634535;28;20048;-82
2022/05/03 09:54:20;;;;;;;15.52;6.35;;;14.30;99.90;;;;;;20648247;28;20110;-83
2022/05/03 10:04:24;;;;;;;13.18;5.38;;;15.00;99.90;;;;;;20664637;28;20121;-82
2022/05/03 10:14:27;;;;;;;19.38;7.20;;;14.70;99.90;;;;;;20661142;28;20038;-82
2022/05/03 10:24:29;;;;;;;14.40;5.68;;;14.40;99.90;;;;;;20663019;28;20061;-82
2022/05/03 10:34:47;;;;;;;20.35;7.97;;;14.90;99.90;;;;;;20641084;28;20089;-84
2022/05/03 10:44:57;;;;;;;13.57;6.13;;;14.70;99.90;;;;;;20653813;28;20110;-83
2022/05/03 10:55:09;;;;;;;14.80;7.13;;;14.80;99.90;;;;;;20654172;28;20129;-82
2022/05/03 11:05:16;;;;;;;9.57;4.20;;;15.10;99.90;;;;;;20637694;28;20056;-82
2022/05/03 11:15:17;;;;;;;9.07;3.17;;;15.20;99.90;;;;;;20635020;28;20117;-82
2022/05/03 11:25:18;;;;;;;6.43;2.40;;;14.90;99.90;;;;;;20634128;28;20113;-83
2022/05/03 11:35:23;;;;;;;6.07;2.42;;;15.10;99.90;;;;;;20634115;28;20165;-82
2022/05/03 11:45:24;;;;;;;4.43;1.95;;;14.90;99.90;;;;;;20635987;28;20106;-82
2022/05/03 12:06:02;;;;;;;5.65;1.95;;;14.70;99.90;;;;;;20643617;28;20109;-82
2022/05/03 12:16:07;;;;;;;8.45;2.97;;;14.60;99.90;;;;;;20619322;28;20520;-83
2022/05/03 12:26:20;;;;;;;4.75;1.88;;;14.50;99.90;;;;;;20657259;28;20152;-83
2022/05/03 12:36:45;;;;;;;5.05;1.92;;;14.80;99.90;;;;;;20637186;28;20109;-82
2022/05/03 12:46:49;;;;;;;7.93;1.92;;;14.90;99.90;;;;;;20652796;28;20122;-83
2022/05/03 13:07:10;;;;;;;4.43;1.73;;;14.70;99.90;;;;;;20662567;28;20129;-82
2022/05/03 13:17:13;;;;;;;4.90;1.30;;;14.80;99.90;;;;;;20648389;28;20110;-83
2022/05/03 13:27:14;;;;;;;5.28;1.38;;;14.60;99.90;;;;;;20615571;28;20134;-82
2022/05/03 13:47:36;;;;;;;2.13;0.85;;;15.40;99.90;;;;;;20661493;28;20081;-83
2022/05/03 13:57:39;;;;;;;4.35;1.55;;;15.10;99.90;;;;;;20642693;28;20026;-82
2022/05/03 14:07:41;;;;;;;3.00;1.35;;;14.90;99.90;;;;;;20657272;28;20403;-82
2022/05/03 14:17:44;;;;;;;6.63;2.08;;;14.70;99.90;;;;;;20647020;28;20054;-82
2022/05/03 14:27:45;;;;;;;3.13;1.17;;;14.50;99.90;;;;;;20650561;28;20058;-83
2022/05/03 14:37:47;;;;;;;4.40;1.70;;;14.40;99.90;;;;;;20632475;28;20075;-82
2022/05/03 14:47:48;;;;;;;11.68;4.03;;;14.40;99.90;;;;;;20658659;28;20560;-85
2022/05/03 15:08:10;;;;;;;4.55;1.80;;;14.10;99.90;;;;;;20652929;28;21313;-83
2022/05/03 15:18:11;;;;;;;3.83;1.20;;;13.90;99.90;;;;;;20663563;28;20585;-83
2022/05/03 15:28:13;;;;;;;3.30;1.23;;;13.80;99.90;;;;;;20663389;28;20073;-82
2022/05/03 15:38:14;;;;;;;2.10;0.90;;;13.60;99.90;;;;;;20661121;28;20077;-84
2022/05/03 15:48:15;;;;;;;2.78;0.82;;;13.70;99.90;;;;;;20649006;28;20073;-83
2022/05/03 15:58:17;;;;;;;2.83;1.45;;;13.70;99.90;;;;;;20662782;28;20058;-81
2022/05/03 16:08:19;;;;;;;2.17;0.82;;;13.60;99.90;;;;;;20666960;28;20509;-82
2022/05/03 16:18:20;;;;;;;2.30;0.90;;;13.60;99.90;;;;;;20652865;28;20038;-82
2022/05/03 16:28:23;;;;;;;2.28;1.02;;;13.50;99.90;;;;;;20662318;28;20406;-82
2022/05/03 16:48:47;;;;;;;1.60;0.60;;;13.20;99.90;;;;;;20680677;28;20062;-82
2022/05/03 16:58:49;;;;;;;1.60;0.65;;;13.10;99.90;;;;;;20672799;28;20045;-82
2022/05/03 17:08:52;;;;;;;3.05;0.90;;;12.90;99.90;;;;;;20672030;28;20026;-82
2022/05/03 17:18:54;;;;;;;1.48;0.50;;;12.90;99.90;;;;;;20679293;28;20045;-82
2022/05/03 17:28:59;;;;;;;1.08;0.63;;;12.70;99.90;;;;;;20674134;28;20080;-83
2022/05/03 17:39:01;;;;;;;1.27;0.63;;;12.60;99.90;;;;;;20667616;28;20042;-82
2022/05/03 17:49:02;;;;;;;1.33;0.80;;;12.40;99.90;;;;;;20671392;28;20347;-82
2022/05/03 17:59:03;;;;;;;2.15;0.47;;;12.30;99.90;;;;;;20668292;28;20031;-82
2022/05/03 18:09:04;;;;;;;2.75;0.57;;;12.10;99.90;;;;;;20636212;28;20067;-82
2022/05/03 18:19:06;;;;;;;3.70;0.68;;;12.20;99.90;;;;;;20675859;28;20035;-82
2022/05/03 18:29:09;;;;;;;2.42;0.75;;;11.90;99.90;;;;;;20669818;28;21019;-82
2022/05/03 18:39:10;;;;;;;1.60;0.50;;;11.70;99.90;;;;;;20666661;28;20054;-82
2022/05/03 18:49:11;;;;;;;2.72;0.90;;;11.70;99.90;;;;;;20641678;28;20053;-82
2022/05/03 18:59:12;;;;;;;1.58;0.65;;;11.70;99.90;;;;;;20659585;28;20085;-83
2022/05/03 19:09:15;;;;;;;1.30;0.50;;;11.50;99.90;;;;;;20641036;28;20101;-82
2022/05/03 19:19:16;;;;;;;2.30;0.95;;;11.30;99.90;;;;;;20642837;28;20570;-82
2022/05/03 19:39:37;;;;;;;1.83;0.52;;;11.30;99.90;;;;;;20658899;28;20069;-82
2022/05/03 19:49:38;;;;;;;6.28;0.60;;;11.20;99.90;;;;;;20653645;28;20034;-81
2022/05/03 19:59:39;;;;;;;1.85;0.60;;;11.10;99.90;;;;;;20673857;28;20038;-83
2022/05/03 20:09:42;;;;;;;1.75;0.70;;;11.10;99.90;;;;;;20682791;28;20038;-81
2022/05/03 20:19:44;;;;;;;1.48;0.50;;;11.30;99.90;;;;;;20689640;28;20493;-82
2022/05/03 20:29:45;;;;;;;2.75;1.60;;;11.10;99.90;;;;;;20665516;28;20061;-82
2022/05/03 20:39:46;;;;;;;1.48;0.57;;;11.00;99.90;;;;;;20663598;28;20660;-82
2022/05/03 20:49:47;;;;;;;3.67;0.80;;;10.90;99.90;;;;;;20666348;28;20042;-82
2022/05/03 20:59:50;;;;;;;3.03;0.70;;;10.70;99.90;;;;;;20676819;28;20042;-82
2022/05/03 21:09:51;;;;;;;1.20;0.80;;;10.80;99.90;;;;;;20664722;28;20502;-82
2022/05/03 21:19:53;;;;;;;3.67;1.02;;;10.70;99.90;;;;;;20652319;28;20022;-82
2022/05/03 21:29:56;;;;;;;4.43;0.77;;;10.70;99.90;;;;;;20654736;28;20110;-82
2022/05/03 21:39:57;;;;;;;1.67;0.45;;;10.60;99.90;;;;;;20656620;28;20062;-82
2022/05/03 21:49:58;;;;;;;1.25;0.50;;;10.50;99.90;;;;;;20657619;28;20035;-82
2022/05/03 21:59:59;;;;;;;6.88;0.98;;;10.50;99.90;;;;;;20673573;28;20434;-82
2022/05/03 22:10:00;;;;;;;2.10;0.70;;;10.30;99.90;;;;;;20673708;28;20026;-83
2022/05/03 22:20:02;;;;;;;2.10;0.65;;;10.30;99.90;;;;;;20671006;28;20050;-82
2022/05/03 22:30:04;;;;;;;1.67;0.70;;;10.20;99.90;;;;;;20657309;28;20061;-82
2022/05/03 22:40:06;;;;;;;1.65;0.65;;;10.10;99.90;;;;;;20670590;28;20073;-82
2022/05/03 22:50:10;;;;;;;3.63;0.95;;;10.00;99.90;;;;;;20687547;28;20090;-82
2022/05/03 23:00:12;;;;;;;1.77;0.65;;;10.00;99.90;;;;;;20670525;28;20172;-82
2022/05/03 23:10:13;;;;;;;1.63;0.60;;;9.90;99.90;;;;;;20686154;28;21038;-82
2022/05/03 23:20:15;;;;;;;1.58;0.70;;;10.00;99.90;;;;;;20685828;28;20050;-83
2022/05/03 23:30:18;;;;;;;1.02;0.40;;;9.90;99.90;;;;;;20667066;28;20089;-83
2022/05/03 23:40:19;;;;;;;0.88;0.30;;;9.90;99.90;;;;;;20666480;28;20062;-82
2022/05/03 23:50:20;;;;;;;2.25;0.43;;;9.90;99.90;;;;;;20666630;28;20389;-82
